Terminal Aerodrome Forecast
Issued by NWS

Home | Current Version | Previous Version | Text Only | Print | Product List | Glossary On
Versions: 1 2 3 4 5 6 7 8 9 10 11 12 13 14 15 16 17 18
000
FTUS46 KOTX 032331
TAFMWH
TAF
KMWH 032331Z 0400/0424 23013G20KT P6SM SCT070 BKN130
     FM040300 20010KT P6SM SCT060 BKN100
     FM040700 21011KT P6SM BKN050 OVC090=

USA.gov is the U.S. government's official web portal to all federal, state and local government web resources and services.